KFZY

Oswego County Airport

Fulton, New York, USA
METAR KFZY 200715Z AUTO 18006KT 5SM RA BR BKN027 OVC037 08/07 A3011 RMK AO2 P0003 T00830072
Observed Flight Rules
Feb-20 @ 07:15 UTC (17 minutes ago) Marginal Visual Flight Rules
Wind Visibility Clouds Conditions
180° at 6 knots 5 miles
  • Broken at 2,700' AGL
  • Overcast at 3,700' AGL
  • Rain
  • Mist
Temperatures Readings Precipitation
Current 8°C / 46°F
Dewpoint 7°C / 45°F
Humidity 93%
Altimeter 30.11" Hg
Pressure 1020 hPa
Elevation 138
Current Rain 0.03
METAR KFZY 200715Z AUTO 18006KT 5SM RA BR BKN027 OVC037 08/07 A3011 RMK AO2 P0003 T00830072
Observed Flight Rules
Feb-20 @ 07:15 UTC
(17 minutes ago)
MVFR
Wind Visibility
180° at 6 knots 5 miles
Clouds
  • Broken at 2,700' AGL
  • Overcast at 3,700' AGL
Conditions
  • Rain
  • Mist
Temperature Dewpoint
8°C / 46°F 7°C / 45°F
Humidity Altimeter Pressure
93% 30.11" Hg 1020 hPa
Current Rain
0.03